createdAt,value
2022-10-20T00:01:22.085Z,13.63
2022-10-20T00:03:51.274Z,9.40
2022-10-20T00:06:23.321Z,8.30
2022-10-20T00:08:52.268Z,9.87
2022-10-20T00:11:23.995Z,19.07
2022-10-20T00:13:54.145Z,14.40
2022-10-20T00:16:23.414Z,9.60
2022-10-20T00:18:52.453Z,12.83
2022-10-20T00:21:23.551Z,17.20
2022-10-20T00:23:52.104Z,11.30
2022-10-20T00:26:23.841Z,12.67
2022-10-20T00:28:53.218Z,9.00
2022-10-20T00:31:23.378Z,11.90
2022-10-20T00:33:51.892Z,11.00
2022-10-20T00:36:22.071Z,14.40
2022-10-20T00:38:51.244Z,11.57
2022-10-20T00:41:22.129Z,16.30
2022-10-20T00:43:52.997Z,14.63
2022-10-20T00:46:22.745Z,15.83
2022-10-20T00:48:53.621Z,15.53
2022-10-20T00:51:25.841Z,13.63
2022-10-20T00:53:56.941Z,18.87
2022-10-20T00:56:27.009Z,15.70
2022-10-20T00:58:56.019Z,9.30
2022-10-20T01:01:24.581Z,13.87
2022-10-20T01:03:53.661Z,12.40
2022-10-20T01:06:24.059Z,12.23
2022-10-20T01:08:53.782Z,41.77
2022-10-20T01:11:33.700Z,51.13
2022-10-20T01:14:17.366Z,66.93
2022-10-20T01:16:55.533Z,30.47
2022-10-20T01:19:53.494Z,45.03
2022-10-20T01:22:46.434Z,24.50
2022-10-20T01:25:20.149Z,48.70
2022-10-20T01:27:52.731Z,35.37
2022-10-20T01:30:23.038Z,41.03
2022-10-20T01:33:12.440Z,24.53
2022-10-20T01:35:51.871Z,23.70
2022-10-20T01:38:29.493Z,18.73
2022-10-20T01:41:03.789Z,58.27
2022-10-20T01:43:37.129Z,36.00
2022-10-20T01:46:08.162Z,28.53
2022-10-20T01:48:40.257Z,17.30
2022-10-20T01:51:09.880Z,10.00
2022-10-20T01:53:38.381Z,10.30
2022-10-20T01:56:07.711Z,32.67
2022-10-20T01:59:02.705Z,12.03
2022-10-20T02:01:45.058Z,17.37
2022-10-20T02:04:15.089Z,13.30
2022-10-20T02:06:50.815Z,10.93
2022-10-20T02:09:25.161Z,10.87
2022-10-20T02:11:59.449Z,10.20
2022-10-20T02:14:29.653Z,8.40
2022-10-20T02:17:00.746Z,12.23
2022-10-20T02:19:33.296Z,12.63
2022-10-20T02:22:02.378Z,10.33
2022-10-20T02:24:35.491Z,9.33
2022-10-20T02:27:06.725Z,10.27
2022-10-20T02:29:41.982Z,7.20
2022-10-20T02:32:12.935Z,12.50
2022-10-20T02:34:42.591Z,11.23
2022-10-20T02:37:11.561Z,8.33
2022-10-20T02:39:40.279Z,10.07
2022-10-20T02:42:08.782Z,11.30
2022-10-20T02:44:38.676Z,24.50
2022-10-20T02:47:07.102Z,20.93
2022-10-20T02:49:35.654Z,20.90
2022-10-20T02:52:04.105Z,49.93
2022-10-20T02:54:32.561Z,38.77
2022-10-20T02:57:01.001Z,27.80
2022-10-20T02:59:29.489Z,92.37
2022-10-20T03:01:59.535Z,60.30
2022-10-20T03:04:28.291Z,73.00
2022-10-20T03:06:56.784Z,67.27
2022-10-20T03:09:25.235Z,54.20
2022-10-20T03:11:53.668Z,43.53
2022-10-20T03:14:22.132Z,69.00
2022-10-20T03:16:50.586Z,41.27
2022-10-20T03:19:20.507Z,62.23
2022-10-20T03:21:49.651Z,82.77
2022-10-20T03:24:18.400Z,80.83
2022-10-20T03:26:46.827Z,92.67
2022-10-20T03:29:15.222Z,35.30
2022-10-20T03:31:43.758Z,51.07
2022-10-20T03:34:13.431Z,62.23
2022-10-20T03:36:43.344Z,60.10
2022-10-20T03:39:11.837Z,85.40
2022-10-20T03:41:40.329Z,52.27
2022-10-20T03:44:08.991Z,85.23
2022-10-20T03:46:37.464Z,97.97
2022-10-20T03:49:05.960Z,29.90
2022-10-20T03:51:34.377Z,39.57
2022-10-20T03:54:04.230Z,33.60
2022-10-20T03:56:32.656Z,16.70
2022-10-20T03:59:01.181Z,38.07
2022-10-20T04:01:32.769Z,14.90
2022-10-20T04:04:01.392Z,17.13
2022-10-20T04:06:30.048Z,17.77
2022-10-20T04:08:58.554Z,25.20
2022-10-20T04:11:28.463Z,53.23
2022-10-20T04:13:56.909Z,35.97
2022-10-20T04:16:25.358Z,40.87
2022-10-20T04:18:54.182Z,88.90
2022-10-20T04:21:22.895Z,25.97
2022-10-20T04:23:51.380Z,32.67
2022-10-20T04:26:19.987Z,44.97
2022-10-20T04:28:49.862Z,58.30
2022-10-20T04:31:18.356Z,41.30
2022-10-20T04:33:46.768Z,22.93
2022-10-20T04:36:15.367Z,17.00
2022-10-20T04:38:43.879Z,5.67
2022-10-20T04:41:12.673Z,7.27
2022-10-20T04:43:41.081Z,7.27
2022-10-20T04:46:11.989Z,6.23
2022-10-20T04:48:44.689Z,9.50
2022-10-20T04:51:16.047Z,6.80
2022-10-20T04:53:44.541Z,8.57
2022-10-20T04:56:19.436Z,8.80
2022-10-20T04:58:49.560Z,6.33
2022-10-20T05:01:20.188Z,7.37
2022-10-20T05:03:48.755Z,6.87
2022-10-20T05:06:18.726Z,10.00
2022-10-20T05:08:49.762Z,9.93
2022-10-20T05:11:19.229Z,8.53
2022-10-20T05:13:48.202Z,10.57
2022-10-20T05:16:18.546Z,11.10
2022-10-20T05:18:48.473Z,8.70
2022-10-20T05:21:19.049Z,8.27
2022-10-20T05:23:47.584Z,7.07
2022-10-20T05:26:18.543Z,8.30
2022-10-20T05:28:49.326Z,10.37
2022-10-20T05:31:21.552Z,19.33
2022-10-20T05:33:51.408Z,10.47
2022-10-20T05:36:21.901Z,9.70
2022-10-20T05:38:52.184Z,10.97
2022-10-20T05:41:22.363Z,13.17
2022-10-20T05:43:51.636Z,10.27
2022-10-20T05:46:21.920Z,13.33
2022-10-20T05:48:53.440Z,21.97
2022-10-20T05:51:24.627Z,19.80
2022-10-20T05:53:55.628Z,17.97
2022-10-20T05:56:24.249Z,19.57
2022-10-20T05:58:52.772Z,21.70
2022-10-20T06:01:25.027Z,15.90
2022-10-20T06:03:55.310Z,19.13
2022-10-20T06:06:25.761Z,13.90
2022-10-20T06:08:54.624Z,17.10
2022-10-20T06:11:23.965Z,18.27
2022-10-20T06:13:53.341Z,16.67
2022-10-20T06:16:25.125Z,20.33
2022-10-20T06:18:53.736Z,22.40
2022-10-20T06:21:23.855Z,11.80
2022-10-20T06:23:52.680Z,49.03
2022-10-20T06:26:23.971Z,44.13
2022-10-20T06:28:54.502Z,22.87
2022-10-20T06:31:26.436Z,18.30
2022-10-20T06:33:55.288Z,15.23
2022-10-20T06:36:24.680Z,16.87
2022-10-20T06:38:55.258Z,19.80
2022-10-20T06:41:24.480Z,14.00
2022-10-20T06:43:58.002Z,15.27
2022-10-20T06:46:31.682Z,16.17
2022-10-20T06:49:03.619Z,15.53
2022-10-20T06:51:32.200Z,16.67
2022-10-20T06:54:02.010Z,23.63
2022-10-20T06:56:32.551Z,21.47
2022-10-20T06:59:02.589Z,32.60
2022-10-20T07:01:33.824Z,21.77
2022-10-20T07:04:04.476Z,15.13
2022-10-20T07:06:34.884Z,16.23
2022-10-20T07:09:04.970Z,23.00
2022-10-20T07:11:34.011Z,19.43
2022-10-20T07:14:03.882Z,15.80
2022-10-20T07:16:35.765Z,15.20
2022-10-20T07:19:05.532Z,15.00
2022-10-20T07:21:38.421Z,17.67
2022-10-20T07:24:09.561Z,17.50
2022-10-20T07:26:41.534Z,19.60
2022-10-20T07:29:11.158Z,20.87
2022-10-20T07:31:42.391Z,16.93
2022-10-20T07:34:24.277Z,29.30
2022-10-20T07:36:55.237Z,19.83
2022-10-20T07:39:24.001Z,16.90
2022-10-20T07:41:52.489Z,20.67
2022-10-20T07:44:21.093Z,18.53
2022-10-20T07:46:51.078Z,20.07
2022-10-20T07:52:08.115Z,16.93
2022-10-20T07:57:27.630Z,18.10
2022-10-20T07:59:56.130Z,20.00
2022-10-20T08:02:26.015Z,20.30
2022-10-20T08:04:54.702Z,45.97
2022-10-20T08:07:23.188Z,25.63
2022-10-20T08:09:51.601Z,30.60
2022-10-20T08:12:20.100Z,25.10
2022-10-20T08:14:51.337Z,20.40
2022-10-20T08:17:20.167Z,32.03
2022-10-20T08:19:56.288Z,52.13
2022-10-20T08:22:24.803Z,26.73
2022-10-20T08:24:54.095Z,33.20
2022-10-20T08:27:22.607Z,28.33
2022-10-20T08:30:00.382Z,22.93
2022-10-20T08:32:39.624Z,26.60
2022-10-20T08:35:10.507Z,25.10
2022-10-20T08:37:39.203Z,26.80
2022-10-20T08:40:08.885Z,25.77
2022-10-20T08:42:44.362Z,29.53
2022-10-20T08:45:16.831Z,22.87
2022-10-20T08:47:46.603Z,24.13
2022-10-20T08:50:19.404Z,24.47
2022-10-20T08:52:52.229Z,21.70
2022-10-20T08:55:25.795Z,27.70
2022-10-20T08:57:56.391Z,24.10
2022-10-20T09:00:26.004Z,21.47
2022-10-20T09:02:55.210Z,16.97
2022-10-20T09:05:27.868Z,19.77
2022-10-20T09:07:56.735Z,22.33
2022-10-20T09:10:33.395Z,17.77
2022-10-20T09:13:02.826Z,27.03
2022-10-20T09:15:32.156Z,15.13
2022-10-20T09:18:03.456Z,16.53
2022-10-20T09:20:39.620Z,13.63
2022-10-20T09:23:28.223Z,7.53
2022-10-20T09:25:59.334Z,15.27
2022-10-20T09:28:34.844Z,5.53
2022-10-20T09:31:23.614Z,10.67
2022-10-20T09:33:52.143Z,4.53
2022-10-20T09:36:23.316Z,9.47
2022-10-20T09:38:53.348Z,9.03
2022-10-20T09:41:25.425Z,4.63
2022-10-20T09:43:58.049Z,7.43
2022-10-20T09:46:28.277Z,5.23
2022-10-20T09:48:57.424Z,9.17
2022-10-20T09:51:29.161Z,5.03
2022-10-20T09:54:02.065Z,4.90
2022-10-20T09:56:34.478Z,4.10
2022-10-20T09:59:05.398Z,3.93
2022-10-20T10:01:33.919Z,4.90
2022-10-20T10:04:05.811Z,13.93
2022-10-20T10:06:46.265Z,7.47
2022-10-20T10:09:31.215Z,6.23
2022-10-20T10:12:02.541Z,5.70
2022-10-20T10:14:33.218Z,4.43
2022-10-20T10:17:02.211Z,5.40
2022-10-20T10:19:32.766Z,3.97
2022-10-20T10:22:04.866Z,2.60
2022-10-20T10:24:41.784Z,4.50
2022-10-20T10:27:25.656Z,4.33
2022-10-20T10:29:54.618Z,4.93
2022-10-20T10:32:27.131Z,4.50
2022-10-20T10:35:09.195Z,3.47
2022-10-20T10:37:42.469Z,6.47
2022-10-20T10:40:17.226Z,3.33
2022-10-20T10:43:18.559Z,3.67
2022-10-20T10:45:52.869Z,3.33
2022-10-20T10:48:40.753Z,7.70
2022-10-20T10:51:15.519Z,4.13
2022-10-20T10:54:00.490Z,3.10
2022-10-20T10:56:37.924Z,9.00
2022-10-20T10:59:12.484Z,8.83
2022-10-20T11:02:20.703Z,4.87
2022-10-20T11:05:22.043Z,1.93
2022-10-20T11:07:57.342Z,4.37
2022-10-20T11:10:36.198Z,5.87
2022-10-20T11:13:21.816Z,6.63
2022-10-20T11:16:19.994Z,4.87
2022-10-20T11:19:16.422Z,11.10
2022-10-20T11:22:01.147Z,12.27
2022-10-20T11:24:44.616Z,4.60
2022-10-20T11:27:17.676Z,6.77
2022-10-20T11:29:50.518Z,4.53
2022-10-20T11:32:25.588Z,5.50
2022-10-20T11:35:02.671Z,5.13
2022-10-20T11:37:33.889Z,2.80
2022-10-20T11:40:14.728Z,7.23
2022-10-20T11:42:53.276Z,14.60
2022-10-20T11:45:34.122Z,2.53
2022-10-20T11:48:07.915Z,3.70
2022-10-20T11:50:37.271Z,22.13
2022-10-20T11:53:18.893Z,3.97
2022-10-20T11:56:08.313Z,6.80
2022-10-20T11:59:09.527Z,4.20
2022-10-20T12:01:41.878Z,4.33
2022-10-20T12:04:33.333Z,5.10
2022-10-20T12:07:28.325Z,4.77
2022-10-20T12:10:35.088Z,9.57
2022-10-20T12:13:18.413Z,5.63
2022-10-20T12:15:51.154Z,6.90
2022-10-20T12:18:26.537Z,8.60
2022-10-20T12:21:02.871Z,6.13
2022-10-20T12:24:02.417Z,3.73
2022-10-20T12:26:43.853Z,7.23
2022-10-20T12:29:48.135Z,4.20
2022-10-20T12:33:06.489Z,4.77
2022-10-20T12:36:00.791Z,6.70
2022-10-20T12:38:30.899Z,2.83
2022-10-20T12:41:03.511Z,4.30
2022-10-20T12:43:45.707Z,7.10
2022-10-20T12:46:21.221Z,3.73
2022-10-20T12:48:57.597Z,3.60
2022-10-20T12:51:38.488Z,6.10
2022-10-20T12:54:18.847Z,6.10
2022-10-20T12:56:48.036Z,2.70
2022-10-20T12:59:46.449Z,5.20
2022-10-20T13:02:40.723Z,6.50
2022-10-20T13:05:43.262Z,10.23
2022-10-20T13:08:33.584Z,5.93
2022-10-20T13:11:49.983Z,8.90
2022-10-20T13:14:42.845Z,4.57
2022-10-20T13:17:21.014Z,5.97
2022-10-20T13:20:00.370Z,4.17
2022-10-20T13:22:43.163Z,5.17
2022-10-20T13:25:38.817Z,7.90
2022-10-20T13:28:18.316Z,5.00
2022-10-20T13:31:02.951Z,6.60
2022-10-20T13:34:03.920Z,6.83
2022-10-20T13:36:49.526Z,9.43
2022-10-20T13:39:29.172Z,6.23
2022-10-20T13:42:08.769Z,6.30
2022-10-20T13:44:46.466Z,8.70
2022-10-20T13:47:33.212Z,5.90
2022-10-20T13:50:06.113Z,10.33
2022-10-20T13:52:41.318Z,7.47
2022-10-20T13:55:19.906Z,17.47
2022-10-20T13:57:55.779Z,9.27
2022-10-20T14:00:27.820Z,6.93
2022-10-20T14:03:01.517Z,10.00
2022-10-20T14:05:37.273Z,8.97
2022-10-20T14:08:10.542Z,6.63
2022-10-20T14:10:46.377Z,6.63
2022-10-20T14:13:17.813Z,11.37
2022-10-20T14:15:49.386Z,8.13
2022-10-20T14:18:25.406Z,11.10
2022-10-20T14:21:00.114Z,12.20
2022-10-20T14:23:30.269Z,15.10
2022-10-20T14:26:01.341Z,8.43
2022-10-20T14:28:32.666Z,10.67
2022-10-20T14:31:01.693Z,9.30
2022-10-20T14:33:30.852Z,10.30
2022-10-20T14:36:02.604Z,8.50
2022-10-20T14:38:35.444Z,11.80
2022-10-20T14:41:07.439Z,12.27
2022-10-20T14:43:40.119Z,9.83
2022-10-20T14:46:11.271Z,8.10
2022-10-20T14:48:43.934Z,8.73
2022-10-20T14:51:36.041Z,9.53
2022-10-20T14:54:24.988Z,11.67
2022-10-20T14:56:56.953Z,10.03
2022-10-20T14:59:27.044Z,10.50
2022-10-20T15:02:07.934Z,15.60
2022-10-20T15:04:37.759Z,13.83
2022-10-20T15:07:12.523Z,12.30
2022-10-20T15:09:43.088Z,15.50
2022-10-20T15:12:18.859Z,13.43
2022-10-20T15:14:49.955Z,15.60
2022-10-20T15:17:39.751Z,10.87
2022-10-20T15:20:33.129Z,27.50
2022-10-20T15:23:03.111Z,18.10
2022-10-20T15:25:33.853Z,13.50
2022-10-20T15:28:03.793Z,14.17
2022-10-20T15:30:32.898Z,12.80
2022-10-20T15:33:01.285Z,15.83
2022-10-20T15:35:31.109Z,11.67
2022-10-20T15:37:59.584Z,18.27
2022-10-20T15:40:28.290Z,11.43
2022-10-20T15:42:56.858Z,14.57
2022-10-20T15:45:28.980Z,18.07
2022-10-20T15:47:57.464Z,12.17
2022-10-20T15:50:25.968Z,14.63
2022-10-20T15:52:54.742Z,17.60
2022-10-20T15:55:27.020Z,11.70
2022-10-20T15:57:56.568Z,15.33
2022-10-20T16:00:28.705Z,12.53
2022-10-20T16:03:02.496Z,21.40
2022-10-20T16:05:31.073Z,36.53
2022-10-20T16:07:59.539Z,28.53
2022-10-20T16:10:29.736Z,18.60
2022-10-20T16:12:58.698Z,12.00
2022-10-20T16:15:30.400Z,16.73
2022-10-20T16:18:01.174Z,9.77
2022-10-20T16:20:31.118Z,11.47
2022-10-20T16:22:59.672Z,12.17
2022-10-20T16:25:28.113Z,21.97
2022-10-20T16:27:56.672Z,18.80
2022-10-20T16:30:25.146Z,17.67
2022-10-20T16:32:55.364Z,11.30
2022-10-20T16:35:23.815Z,12.37
2022-10-20T16:37:52.327Z,17.47
2022-10-20T16:40:20.870Z,18.97
2022-10-20T16:42:49.401Z,15.63
2022-10-20T16:45:17.999Z,18.23
2022-10-20T16:47:46.522Z,22.47
2022-10-20T16:50:16.424Z,20.20
2022-10-20T16:52:45.118Z,17.87
2022-10-20T16:55:13.682Z,27.80
2022-10-20T16:57:42.101Z,23.03
2022-10-20T17:00:14.374Z,14.93
2022-10-20T17:02:44.890Z,15.80
2022-10-20T17:05:13.372Z,14.53
2022-10-20T17:07:43.201Z,24.10
2022-10-20T17:10:11.895Z,18.17
2022-10-20T17:12:40.380Z,14.00
2022-10-20T17:15:09.725Z,19.40
2022-10-20T17:17:38.522Z,16.03
2022-10-20T17:20:08.546Z,12.73
2022-10-20T17:22:37.268Z,21.30
2022-10-20T17:25:08.675Z,16.07
2022-10-20T17:27:37.122Z,13.13
2022-10-20T17:30:06.547Z,19.13
2022-10-20T17:32:35.326Z,15.77
2022-10-20T17:35:04.006Z,13.67
2022-10-20T17:37:33.072Z,13.90
2022-10-20T17:40:01.562Z,15.37
2022-10-20T17:42:33.065Z,16.20
2022-10-20T17:45:01.556Z,17.37
2022-10-20T17:47:30.030Z,15.17
2022-10-20T17:49:58.580Z,21.10
2022-10-20T17:52:27.062Z,15.93
2022-10-20T17:54:55.568Z,15.93
2022-10-20T17:57:24.003Z,17.47
2022-10-20T17:59:56.397Z,22.50
2022-10-20T18:02:26.603Z,18.50
2022-10-20T18:04:55.099Z,19.10
2022-10-20T18:07:23.577Z,19.17
2022-10-20T18:09:52.146Z,25.37
2022-10-20T18:12:20.859Z,15.00
2022-10-20T18:14:49.334Z,14.43
2022-10-20T18:17:19.165Z,24.67
2022-10-20T18:19:47.672Z,19.00
2022-10-20T18:22:16.337Z,21.20
2022-10-20T18:24:44.795Z,20.53
2022-10-20T18:27:13.768Z,15.63
2022-10-20T18:29:43.056Z,22.17
2022-10-20T18:32:11.603Z,27.60
2022-10-20T18:34:43.430Z,29.80
2022-10-20T18:37:15.173Z,19.50
2022-10-20T18:39:43.619Z,17.50
2022-10-20T18:42:12.224Z,29.67
2022-10-20T18:44:40.857Z,63.40
2022-10-20T18:47:10.946Z,45.53
2022-10-20T18:49:40.808Z,30.17
2022-10-20T18:52:09.291Z,24.87
2022-10-20T18:54:37.899Z,23.40
2022-10-20T18:57:06.459Z,21.00
2022-10-20T18:59:34.912Z,28.23
2022-10-20T19:02:03.574Z,28.47
2022-10-20T19:04:31.997Z,25.70
2022-10-20T19:07:02.174Z,28.47
2022-10-20T19:09:30.729Z,23.03
2022-10-20T19:12:00.674Z,22.17
2022-10-20T19:14:29.486Z,26.40
2022-10-20T19:16:58.525Z,23.50
2022-10-20T19:19:27.195Z,43.47
2022-10-20T19:21:55.744Z,23.77
2022-10-20T19:24:26.196Z,23.17
2022-10-20T19:27:21.352Z,27.63
2022-10-20T19:29:46.531Z,28.27
2022-10-20T19:32:15.166Z,27.20
2022-10-20T19:34:43.674Z,31.73
2022-10-20T19:37:12.526Z,23.90
2022-10-20T19:39:43.706Z,24.87
2022-10-20T19:42:13.719Z,19.90
2022-10-20T19:44:42.442Z,29.97
2022-10-20T19:47:11.596Z,24.50
2022-10-20T19:49:40.947Z,27.50
2022-10-20T19:52:09.848Z,21.03
2022-10-20T19:54:38.438Z,24.20
2022-10-20T19:57:08.373Z,27.23
2022-10-20T19:59:36.825Z,33.93
2022-10-20T20:02:05.605Z,19.53
2022-10-20T20:04:34.211Z,25.17
2022-10-20T20:07:06.452Z,33.17
2022-10-20T20:09:35.421Z,22.00
2022-10-20T20:12:03.890Z,18.77
2022-10-20T20:14:33.854Z,31.03
2022-10-20T20:17:02.942Z,17.93
2022-10-20T20:19:32.146Z,20.73
2022-10-20T20:22:00.610Z,26.63
2022-10-20T20:24:29.237Z,20.73
2022-10-20T20:29:45.584Z,34.60
2022-10-20T20:32:13.991Z,44.00
2022-10-20T20:34:42.505Z,24.57
2022-10-20T20:37:11.009Z,19.90
2022-10-20T20:39:39.622Z,14.97
2022-10-20T20:42:08.089Z,18.67
2022-10-20T20:44:36.586Z,7.77
2022-10-20T20:47:06.435Z,12.03
2022-10-20T20:49:35.023Z,7.67
2022-10-20T20:52:03.510Z,7.17
2022-10-20T20:54:33.173Z,7.50
2022-10-20T20:57:01.755Z,8.50
2022-10-20T20:59:30.471Z,7.43
2022-10-20T21:01:58.975Z,9.43
2022-10-20T21:04:30.676Z,6.53
2022-10-20T21:07:02.550Z,13.63
2022-10-20T21:09:32.090Z,16.27
2022-10-20T21:12:00.576Z,12.20
2022-10-20T21:14:29.145Z,11.57
2022-10-20T21:16:57.931Z,11.10
2022-10-20T21:19:26.368Z,13.40
2022-10-20T21:21:58.426Z,10.73
2022-10-20T21:24:28.054Z,14.50
2022-10-20T21:26:56.848Z,14.77
2022-10-20T21:29:25.397Z,12.30
2022-10-20T21:31:55.194Z,13.13
2022-10-20T21:34:24.171Z,10.70
2022-10-20T21:36:53.306Z,11.67
2022-10-20T21:39:23.368Z,11.33
2022-10-20T21:41:52.378Z,13.40
2022-10-20T21:44:21.174Z,12.57
2022-10-20T21:46:50.851Z,10.90
2022-10-20T21:49:25.066Z,18.20
2022-10-20T21:51:55.937Z,12.30
2022-10-20T21:54:27.702Z,12.00
2022-10-20T21:56:56.833Z,11.00
2022-10-20T21:59:26.785Z,14.33
2022-10-20T22:01:57.065Z,12.33
2022-10-20T22:04:27.337Z,14.40
2022-10-20T22:06:56.554Z,10.60
2022-10-20T22:09:26.423Z,11.73
2022-10-20T22:11:58.463Z,11.93
2022-10-20T22:14:27.343Z,12.90
2022-10-20T22:16:56.704Z,10.43
2022-10-20T22:19:26.446Z,15.73
2022-10-20T22:21:55.279Z,17.60
2022-10-20T22:24:26.018Z,12.80
2022-10-20T22:26:54.843Z,12.40
2022-10-20T22:29:23.786Z,13.93
2022-10-20T22:31:52.284Z,11.03
2022-10-20T22:34:20.955Z,15.10
2022-10-20T22:36:49.502Z,14.80
2022-10-20T22:39:18.148Z,12.40
2022-10-20T22:41:48.013Z,14.50
2022-10-20T22:44:16.446Z,14.13
2022-10-20T22:46:44.945Z,16.80
2022-10-20T22:49:14.296Z,15.60
2022-10-20T22:51:42.765Z,11.87
2022-10-20T22:54:11.347Z,9.60
2022-10-20T22:56:39.843Z,12.33
2022-10-20T22:59:09.692Z,14.43
2022-10-20T23:01:38.407Z,18.53
2022-10-20T23:04:06.951Z,11.97
2022-10-20T23:06:35.532Z,12.60
2022-10-20T23:09:04.570Z,28.93
2022-10-20T23:11:33.067Z,17.00
2022-10-20T23:14:01.571Z,12.17
2022-10-20T23:16:31.390Z,15.37
2022-10-20T23:18:59.892Z,12.70
2022-10-20T23:21:28.427Z,18.90
2022-10-20T23:23:56.868Z,15.00
2022-10-20T23:26:25.424Z,26.03
2022-10-20T23:28:54.108Z,14.23
2022-10-20T23:31:23.643Z,14.23
2022-10-20T23:33:57.305Z,10.63
2022-10-20T23:36:26.008Z,12.23
2022-10-20T23:38:54.487Z,10.47
2022-10-20T23:41:22.955Z,15.80
2022-10-20T23:43:51.469Z,13.37
2022-10-20T23:46:19.911Z,11.40
2022-10-20T23:48:48.369Z,16.00
2022-10-20T23:51:18.223Z,12.77
2022-10-20T23:53:46.683Z,14.80
2022-10-20T23:56:15.148Z,12.73
2022-10-20T23:58:43.696Z,11.50
